Time;durP1;ratioP1;P1;durP2;ratioP2;P2;SDS_P1;SDS_P2;PMS_P1;PMS_P2;Temp;Humidity;BMP_temperature;BMP_pressure;BME280_temperature;BME280_humidity;BME280_pressure;Samples;Min_cycle;Max_cycle;Signal;HPM_P1;HPM_P2
2021/03/03 00:02:19;;;;;;;88.97;39.33;;;1.30;99.90;;;;;;5012063;28;20523;-82
2021/03/03 00:04:47;;;;;;;74.57;33.23;;;1.30;99.90;;;;;;5037152;28;20258;-83
2021/03/03 00:07:15;;;;;;;93.33;42.50;;;1.30;99.90;;;;;;5021298;28;20632;-82
2021/03/03 00:09:43;;;;;;;93.60;41.63;;;1.30;99.90;;;;;;5018128;28;20646;-82
2021/03/03 00:12:11;;;;;;;63.90;27.97;;;1.30;99.90;;;;;;5034058;28;20281;-82
2021/03/03 00:14:39;;;;;;;96.37;43.00;;;1.20;99.90;;;;;;5019485;28;20572;-82
2021/03/03 00:17:06;;;;;;;100.50;43.87;;;1.30;99.90;;;;;;5013401;28;20246;-82
2021/03/03 00:19:34;;;;;;;97.70;45.57;;;1.30;99.90;;;;;;5011894;28;20213;-83
2021/03/03 00:22:04;;;;;;;98.53;44.30;;;1.20;99.90;;;;;;5019188;28;20207;-83
2021/03/03 00:24:31;;;;;;;95.80;46.53;;;1.20;99.90;;;;;;5017996;28;20198;-83
2021/03/03 00:26:59;;;;;;;92.93;44.00;;;1.20;99.90;;;;;;5014567;28;20305;-81
2021/03/03 00:29:27;;;;;;;98.10;43.60;;;1.20;99.90;;;;;;5030657;28;20403;-82
2021/03/03 00:31:55;;;;;;;95.27;44.57;;;1.20;99.90;;;;;;5027189;28;20187;-81
2021/03/03 00:34:23;;;;;;;89.63;42.53;;;1.20;99.90;;;;;;5033998;28;20211;-82
2021/03/03 00:36:50;;;;;;;97.77;44.07;;;1.30;99.90;;;;;;5014216;28;20205;-82
2021/03/03 00:39:18;;;;;;;91.60;42.93;;;1.20;99.90;;;;;;5014950;28;20207;-82
2021/03/03 00:41:45;;;;;;;89.30;42.17;;;1.20;99.90;;;;;;5002334;28;20276;-82
2021/03/03 00:44:12;;;;;;;80.20;35.13;;;1.20;99.90;;;;;;5013891;28;20856;-81
2021/03/03 00:46:41;;;;;;;84.03;36.90;;;1.30;99.90;;;;;;5023496;28;20204;-81
2021/03/03 00:49:09;;;;;;;83.70;38.93;;;1.30;99.90;;;;;;5030628;28;20649;-82
2021/03/03 00:51:36;;;;;;;89.87;43.63;;;1.30;99.90;;;;;;5042352;28;20203;-83
2021/03/03 00:54:05;;;;;;;85.33;39.27;;;1.20;99.90;;;;;;5042475;28;20214;-80
2021/03/03 00:56:32;;;;;;;80.83;39.40;;;1.20;99.90;;;;;;5012018;28;20629;-82
2021/03/03 00:58:59;;;;;;;85.23;38.97;;;1.10;99.90;;;;;;5018479;28;20229;-82
2021/03/03 01:01:27;;;;;;;82.20;38.40;;;1.20;99.90;;;;;;5011803;28;20700;-83
2021/03/03 01:03:55;;;;;;;84.23;39.30;;;1.20;99.90;;;;;;5018717;28;20552;-80
2021/03/03 01:06:23;;;;;;;85.83;41.57;;;1.20;99.90;;;;;;5014797;28;20198;-81
2021/03/03 01:08:51;;;;;;;78.37;36.63;;;1.20;99.90;;;;;;4991947;28;20218;-82
2021/03/03 01:11:18;;;;;;;74.63;35.67;;;1.20;99.90;;;;;;5018781;28;20782;-81
2021/03/03 01:13:45;;;;;;;77.57;35.63;;;1.10;99.90;;;;;;5018277;28;20201;-83
2021/03/03 01:16:13;;;;;;;79.40;36.53;;;1.10;99.90;;;;;;5022733;28;20207;-83
2021/03/03 01:18:41;;;;;;;82.77;38.43;;;1.10;99.90;;;;;;5024203;28;20229;-82
2021/03/03 01:21:09;;;;;;;79.17;37.73;;;1.10;99.90;;;;;;5011144;28;20213;-80
2021/03/03 01:23:37;;;;;;;80.37;37.13;;;1.20;99.90;;;;;;5017840;28;20226;-82
2021/03/03 01:26:05;;;;;;;81.83;39.80;;;1.20;99.90;;;;;;5022226;28;20208;-83
2021/03/03 01:28:32;;;;;;;79.57;38.97;;;1.20;99.90;;;;;;5013370;28;20202;-82
2021/03/03 01:31:00;;;;;;;79.23;38.93;;;1.20;99.90;;;;;;5035969;28;20194;-80
2021/03/03 01:33:28;;;;;;;84.67;39.77;;;1.20;99.90;;;;;;5028779;28;20524;-81
2021/03/03 01:35:56;;;;;;;93.10;43.07;;;1.20;99.90;;;;;;5023589;28;20310;-81
2021/03/03 01:38:25;;;;;;;94.77;42.33;;;1.20;99.90;;;;;;5018098;28;20210;-81
2021/03/03 01:40:53;;;;;;;85.27;39.27;;;1.40;99.90;;;;;;5023394;28;20210;-81
2021/03/03 01:43:21;;;;;;;100.03;45.23;;;1.20;99.90;;;;;;5020684;28;20214;-81
2021/03/03 01:45:49;;;;;;;92.23;40.17;;;1.20;99.90;;;;;;5009005;28;20261;-83
2021/03/03 01:48:18;;;;;;;92.10;42.37;;;1.20;99.90;;;;;;5016247;28;20622;-83
2021/03/03 01:50:45;;;;;;;84.60;38.87;;;1.20;99.90;;;;;;5012304;28;20195;-80
2021/03/03 01:53:14;;;;;;;83.57;39.87;;;1.20;99.90;;;;;;5017750;28;20371;-83
2021/03/03 01:55:43;;;;;;;76.77;36.97;;;1.20;99.90;;;;;;5018545;28;20198;-82
2021/03/03 01:58:11;;;;;;;86.70;39.57;;;1.20;99.90;;;;;;5008151;28;20250;-82
2021/03/03 02:00:39;;;;;;;84.67;41.67;;;1.20;99.90;;;;;;5015102;28;20208;-82
2021/03/03 02:03:07;;;;;;;75.20;37.33;;;1.10;99.90;;;;;;5012616;28;20198;-82
2021/03/03 02:05:35;;;;;;;82.97;40.13;;;1.10;99.90;;;;;;5011550;28;20359;-82
2021/03/03 02:08:07;;;;;;;84.07;38.03;;;1.10;99.90;;;;;;5010532;28;20301;-83
2021/03/03 02:10:42;;;;;;;84.37;39.07;;;1.10;99.90;;;;;;5007623;28;20226;-82
2021/03/03 02:13:16;;;;;;;87.07;39.60;;;1.10;99.90;;;;;;5015402;28;20198;-82
2021/03/03 02:15:47;;;;;;;90.03;39.70;;;1.10;99.90;;;;;;5011826;28;20225;-82
2021/03/03 02:18:16;;;;;;;83.07;39.20;;;1.10;99.90;;;;;;5006433;28;20227;-83
2021/03/03 02:20:53;;;;;;;87.10;40.27;;;1.10;99.90;;;;;;5039396;28;20210;-81
2021/03/03 02:23:32;;;;;;;85.23;38.03;;;1.20;99.90;;;;;;5026414;28;20202;-82
2021/03/03 02:26:02;;;;;;;78.73;33.93;;;1.10;99.90;;;;;;5025315;28;20214;-81
2021/03/03 02:28:31;;;;;;;72.57;33.00;;;1.20;99.90;;;;;;5023866;28;20199;-82
2021/03/03 02:30:59;;;;;;;78.10;35.67;;;1.10;99.90;;;;;;5036505;28;20194;-82
2021/03/03 02:33:27;;;;;;;83.30;36.33;;;1.10;99.90;;;;;;5011574;28;20202;-83
2021/03/03 02:35:55;;;;;;;73.73;34.87;;;1.10;99.90;;;;;;5019713;28;20210;-81
2021/03/03 02:38:25;;;;;;;76.57;35.10;;;1.00;99.90;;;;;;5031741;28;20556;-82
2021/03/03 02:40:53;;;;;;;77.23;31.27;;;1.00;99.90;;;;;;5022712;28;20213;-82
2021/03/03 02:43:23;;;;;;;87.67;37.83;;;1.00;99.90;;;;;;5026355;28;20198;-82
2021/03/03 02:45:50;;;;;;;87.27;37.03;;;1.00;99.90;;;;;;5012906;28;20199;-81
2021/03/03 02:48:18;;;;;;;86.00;36.33;;;1.00;99.90;;;;;;5020617;28;20869;-82
2021/03/03 02:50:46;;;;;;;78.80;34.43;;;1.00;99.90;;;;;;5026562;28;20719;-82
2021/03/03 02:53:15;;;;;;;78.97;33.10;;;0.80;99.90;;;;;;5012302;28;20235;-82
2021/03/03 02:55:42;;;;;;;78.03;34.37;;;0.90;99.90;;;;;;5012360;28;20203;-81
2021/03/03 02:58:10;;;;;;;81.97;35.10;;;0.90;99.90;;;;;;5009173;28;20222;-81
2021/03/03 03:00:41;;;;;;;91.70;36.73;;;0.90;99.90;;;;;;5011569;28;20203;-81
2021/03/03 03:03:18;;;;;;;71.00;29.30;;;0.90;99.90;;;;;;5007165;28;20547;-82
2021/03/03 03:05:49;;;;;;;77.57;34.30;;;0.90;99.90;;;;;;5012836;28;20646;-82
2021/03/03 03:08:19;;;;;;;76.80;32.07;;;0.90;99.90;;;;;;5015815;28;20213;-81
2021/03/03 03:10:48;;;;;;;79.30;33.63;;;0.80;99.90;;;;;;5005674;28;20195;-80
2021/03/03 03:13:18;;;;;;;79.43;34.93;;;0.80;99.90;;;;;;5021773;28;20226;-82
2021/03/03 03:15:49;;;;;;;88.87;35.57;;;0.80;99.90;;;;;;5012379;28;20195;-84
2021/03/03 03:18:21;;;;;;;76.40;33.80;;;0.80;99.90;;;;;;5012543;28;20218;-81
2021/03/03 03:20:51;;;;;;;74.37;32.90;;;0.80;99.90;;;;;;5015019;28;20532;-82
2021/03/03 03:23:21;;;;;;;86.97;37.03;;;0.80;99.90;;;;;;5009258;28;20516;-82
2021/03/03 03:25:49;;;;;;;77.90;34.10;;;0.80;99.90;;;;;;5015339;28;20199;-82
2021/03/03 03:28:17;;;;;;;83.80;33.20;;;0.80;99.90;;;;;;5028498;28;20203;-81
2021/03/03 03:30:46;;;;;;;85.83;34.80;;;0.90;99.90;;;;;;5036046;28;20195;-82
2021/03/03 03:33:16;;;;;;;83.80;34.17;;;0.90;99.90;;;;;;5040664;28;20275;-82
2021/03/03 03:35:43;;;;;;;91.40;33.63;;;0.90;99.90;;;;;;5009081;28;20199;-82
2021/03/03 03:38:11;;;;;;;85.47;34.83;;;1.00;99.90;;;;;;5017761;28;20221;-82
2021/03/03 03:40:38;;;;;;;93.20;34.70;;;0.80;99.90;;;;;;5007919;28;20207;-82
2021/03/03 03:43:09;;;;;;;118.00;36.77;;;0.70;99.90;;;;;;5013073;28;20402;-81
2021/03/03 03:45:37;;;;;;;96.77;34.90;;;0.70;99.90;;;;;;5009579;28;20190;-82
2021/03/03 03:48:07;;;;;;;93.83;36.20;;;0.70;99.90;;;;;;5011777;28;20207;-82
2021/03/03 03:50:36;;;;;;;96.77;36.87;;;0.80;99.90;;;;;;5015157;28;20206;-81
2021/03/03 03:53:03;;;;;;;95.80;36.80;;;0.80;99.90;;;;;;5011066;28;20537;-82
2021/03/03 03:55:31;;;;;;;95.53;35.80;;;0.80;99.90;;;;;;5015901;28;20230;-80
2021/03/03 03:58:00;;;;;;;86.73;34.27;;;0.80;99.90;;;;;;5015133;28;20255;-83
2021/03/03 04:00:29;;;;;;;80.60;33.20;;;0.90;99.90;;;;;;5032720;28;20213;-82
2021/03/03 04:02:57;;;;;;;86.93;34.27;;;0.80;99.90;;;;;;5017275;28;20198;-83
2021/03/03 04:05:27;;;;;;;83.60;33.43;;;0.80;99.90;;;;;;5014914;28;20614;-82
2021/03/03 04:07:55;;;;;;;100.07;35.60;;;0.80;99.90;;;;;;5032933;28;20281;-82
2021/03/03 04:10:25;;;;;;;78.77;33.30;;;0.80;99.90;;;;;;5031559;28;20628;-81
2021/03/03 04:12:53;;;;;;;84.73;33.23;;;0.70;99.90;;;;;;5018606;28;20199;-81
2021/03/03 04:15:20;;;;;;;83.10;32.57;;;0.80;99.90;;;;;;5019045;28;20746;-83
2021/03/03 04:17:48;;;;;;;80.30;34.43;;;0.80;99.90;;;;;;5013489;28;20933;-82
2021/03/03 04:20:17;;;;;;;88.40;35.30;;;0.80;99.90;;;;;;5015458;28;20203;-83
2021/03/03 04:22:46;;;;;;;85.77;33.33;;;0.80;99.90;;;;;;5016365;28;20214;-83
2021/03/03 04:25:16;;;;;;;87.00;34.27;;;0.80;99.90;;;;;;5016145;28;20203;-82
2021/03/03 04:27:44;;;;;;;92.80;35.50;;;0.80;99.90;;;;;;5015625;28;20391;-81
2021/03/03 04:30:13;;;;;;;85.20;35.00;;;0.70;99.90;;;;;;5011291;28;20253;-83
2021/03/03 04:32:41;;;;;;;89.93;34.97;;;0.80;99.90;;;;;;5019112;28;20199;-82
2021/03/03 04:35:10;;;;;;;84.97;34.67;;;0.90;99.90;;;;;;5008204;28;20199;-82
2021/03/03 04:37:38;;;;;;;86.30;33.73;;;0.80;99.90;;;;;;5018570;28;20311;-81
2021/03/03 04:40:09;;;;;;;78.87;33.17;;;0.80;99.90;;;;;;5016213;28;20213;-82
2021/03/03 04:42:37;;;;;;;87.93;34.47;;;0.80;99.90;;;;;;5018626;28;20873;-82
2021/03/03 04:45:06;;;;;;;84.17;32.60;;;0.80;99.90;;;;;;5019543;28;20217;-81
2021/03/03 04:47:34;;;;;;;83.30;33.63;;;0.80;99.90;;;;;;5014354;28;20203;-82
2021/03/03 04:50:03;;;;;;;100.13;33.87;;;0.80;99.90;;;;;;5021969;28;20203;-82
2021/03/03 04:52:31;;;;;;;81.70;31.50;;;0.80;99.90;;;;;;5017226;28;20755;-81
2021/03/03 04:54:59;;;;;;;82.60;33.07;;;0.80;99.90;;;;;;5014104;28;20717;-82
2021/03/03 04:57:27;;;;;;;81.43;32.23;;;0.80;99.90;;;;;;5028748;28;20206;-82
2021/03/03 04:59:54;;;;;;;90.57;34.37;;;0.90;99.90;;;;;;5037210;28;20289;-82
2021/03/03 05:02:22;;;;;;;89.30;36.00;;;0.80;99.90;;;;;;5022400;28;20307;-80
2021/03/03 05:04:50;;;;;;;81.93;34.57;;;0.80;99.90;;;;;;5030239;28;20196;-81
2021/03/03 05:07:18;;;;;;;91.57;33.23;;;0.80;99.90;;;;;;5025965;28;20272;-81
2021/03/03 05:09:45;;;;;;;95.40;33.33;;;0.80;99.90;;;;;;5029699;28;20250;-83
2021/03/03 05:12:13;;;;;;;85.10;32.33;;;0.80;99.90;;;;;;5020739;28;20195;-82
2021/03/03 05:14:42;;;;;;;102.80;33.33;;;0.80;99.90;;;;;;5018187;28;20235;-81
2021/03/03 05:17:09;;;;;;;87.53;32.53;;;0.80;99.90;;;;;;5007981;28;20218;-82
2021/03/03 05:19:37;;;;;;;85.83;31.43;;;0.70;99.90;;;;;;5014029;28;20240;-83
2021/03/03 05:22:04;;;;;;;85.17;32.07;;;0.70;99.90;;;;;;5016643;28;20834;-82
2021/03/03 05:24:32;;;;;;;83.30;31.90;;;0.70;99.90;;;;;;5012662;28;20194;-83
2021/03/03 05:26:59;;;;;;;77.43;30.67;;;0.60;99.90;;;;;;5020350;28;20207;-81
2021/03/03 05:29:27;;;;;;;91.90;32.77;;;0.70;99.90;;;;;;5015358;28;20210;-83
2021/03/03 05:31:55;;;;;;;82.53;31.50;;;0.70;99.90;;;;;;5017125;28;20226;-81
2021/03/03 05:34:23;;;;;;;88.00;32.63;;;0.80;99.90;;;;;;5019842;28;20676;-83
2021/03/03 05:36:51;;;;;;;88.37;32.23;;;0.70;99.90;;;;;;5019049;28;20195;-81
2021/03/03 05:39:18;;;;;;;91.03;33.07;;;0.70;99.90;;;;;;5019311;28;20345;-83
2021/03/03 05:41:46;;;;;;;86.93;32.27;;;0.70;99.90;;;;;;5022119;28;20257;-84
2021/03/03 05:44:14;;;;;;;89.63;33.73;;;0.80;99.90;;;;;;5025442;28;20206;-82
2021/03/03 05:46:44;;;;;;;94.73;32.53;;;0.70;99.90;;;;;;5016955;28;20202;-83
2021/03/03 05:49:16;;;;;;;90.27;33.30;;;0.70;99.90;;;;;;5015957;28;20707;-82
2021/03/03 05:51:45;;;;;;;79.77;30.93;;;0.70;99.90;;;;;;5018562;28;20260;-82
2021/03/03 05:54:13;;;;;;;79.97;31.00;;;0.70;99.90;;;;;;5003846;28;20464;-81
2021/03/03 05:56:42;;;;;;;81.97;29.57;;;0.70;99.90;;;;;;5023319;28;20194;-83
2021/03/03 05:59:11;;;;;;;95.80;31.77;;;0.70;99.90;;;;;;5030439;28;20364;-82
2021/03/03 06:01:40;;;;;;;96.37;32.30;;;0.70;99.90;;;;;;5023589;28;20213;-81
2021/03/03 06:04:22;;;;;;;86.87;30.53;;;0.90;99.90;;;;;;5030617;28;20206;-82
2021/03/03 06:06:50;;;;;;;84.40;30.07;;;0.70;99.90;;;;;;4989804;28;20389;-83
2021/03/03 06:09:19;;;;;;;77.20;30.70;;;0.70;99.90;;;;;;5022886;28;20221;-83
2021/03/03 06:11:47;;;;;;;72.97;28.53;;;0.70;99.90;;;;;;5017220;28;20293;-82
2021/03/03 06:14:14;;;;;;;77.07;29.47;;;0.70;99.90;;;;;;5014516;28;20195;-81
2021/03/03 06:16:43;;;;;;;75.97;28.70;;;0.70;99.90;;;;;;5011544;28;20238;-81
2021/03/03 06:19:11;;;;;;;70.70;27.93;;;0.70;99.90;;;;;;5017802;28;20235;-83
2021/03/03 06:21:39;;;;;;;73.07;27.97;;;0.80;99.90;;;;;;5028536;28;20422;-81
2021/03/03 06:24:09;;;;;;;81.93;29.20;;;0.70;99.90;;;;;;5016044;28;20349;-80
2021/03/03 06:26:53;;;;;;;70.80;28.57;;;0.70;99.90;;;;;;5026545;28;20215;-83
2021/03/03 06:29:21;;;;;;;78.27;29.90;;;0.60;99.90;;;;;;5014707;28;20870;-82
2021/03/03 06:31:49;;;;;;;87.50;30.17;;;0.60;99.90;;;;;;5008635;28;20203;-81
2021/03/03 06:34:18;;;;;;;89.10;31.57;;;0.60;99.90;;;;;;5022880;28;20445;-81
2021/03/03 06:36:48;;;;;;;80.23;29.20;;;0.70;99.90;;;;;;5023816;28;20198;-80
2021/03/03 06:39:22;;;;;;;73.93;29.27;;;0.80;99.90;;;;;;5022408;28;20234;-82
2021/03/03 06:41:54;;;;;;;78.33;30.37;;;0.70;99.90;;;;;;5033514;28;20176;-84
2021/03/03 06:44:22;;;;;;;80.33;28.93;;;0.80;99.90;;;;;;5029365;28;20218;-82
2021/03/03 06:47:03;;;;;;;74.80;29.93;;;0.80;99.90;;;;;;5025909;28;20194;-82
2021/03/03 06:49:32;;;;;;;85.10;30.33;;;0.90;99.90;;;;;;5033010;28;20428;-81
2021/03/03 06:52:00;;;;;;;69.40;27.87;;;0.90;99.90;;;;;;5026631;28;20203;-83
2021/03/03 06:54:28;;;;;;;78.37;30.37;;;0.80;99.90;;;;;;5023895;28;20205;-83
2021/03/03 06:56:57;;;;;;;81.77;30.17;;;0.90;99.90;;;;;;5024300;28;20270;-83
2021/03/03 06:59:26;;;;;;;74.93;30.20;;;0.90;99.90;;;;;;5017213;28;20289;-81
2021/03/03 07:01:55;;;;;;;81.30;31.23;;;0.90;99.90;;;;;;5015998;28;20240;-82
2021/03/03 07:04:26;;;;;;;89.67;28.80;;;1.00;99.90;;;;;;5011384;28;20200;-84
2021/03/03 07:06:55;;;;;;;89.10;31.73;;;1.10;99.90;;;;;;5021658;28;20204;-83
2021/03/03 07:09:36;;;;;;;82.50;31.00;;;1.20;99.90;;;;;;5029202;28;20265;-81
2021/03/03 07:12:06;;;;;;;78.83;30.30;;;1.20;99.90;;;;;;5029729;28;20214;-82
2021/03/03 07:14:35;;;;;;;77.00;29.63;;;1.20;99.90;;;;;;5028578;28;20195;-85
2021/03/03 07:17:11;;;;;;;82.53;31.90;;;1.30;99.90;;;;;;5027712;28;20213;-81
2021/03/03 07:19:41;;;;;;;79.50;31.40;;;1.30;99.90;;;;;;5027601;28;20221;-83
2021/03/03 07:22:25;;;;;;;70.63;28.63;;;1.30;99.90;;;;;;5025925;28;20200;-83
2021/03/03 07:24:55;;;;;;;75.13;29.23;;;1.20;99.90;;;;;;5021295;28;20410;-83
2021/03/03 07:27:23;;;;;;;77.57;28.83;;;1.20;99.90;;;;;;5025669;28;20199;-80
2021/03/03 07:29:52;;;;;;;75.00;28.70;;;1.20;99.90;;;;;;5030706;28;20327;-84
2021/03/03 07:32:20;;;;;;;67.77;27.13;;;1.10;99.90;;;;;;5026806;28;20187;-82
2021/03/03 07:34:50;;;;;;;69.03;28.60;;;1.20;99.90;;;;;;5026919;28;20362;-81
2021/03/03 07:37:19;;;;;;;76.23;29.47;;;1.00;99.90;;;;;;5018938;28;20465;-81
2021/03/03 07:39:56;;;;;;;95.43;30.90;;;1.20;99.90;;;;;;5024413;28;20225;-80
2021/03/03 07:42:27;;;;;;;73.03;29.50;;;1.20;99.90;;;;;;5022830;28;20422;-82
2021/03/03 07:44:56;;;;;;;74.90;29.20;;;1.30;99.90;;;;;;5027265;28;20503;-82
2021/03/03 07:47:25;;;;;;;75.33;29.93;;;1.30;99.90;;;;;;5019738;28;20210;-81
2021/03/03 07:49:58;;;;;;;82.23;30.57;;;1.40;99.90;;;;;;5011988;28;20222;-82
2021/03/03 07:52:26;;;;;;;91.17;32.57;;;1.50;99.90;;;;;;5010880;28;20211;-82
2021/03/03 07:54:54;;;;;;;82.70;30.87;;;1.50;99.90;;;;;;5011260;28;20187;-83
2021/03/03 07:57:23;;;;;;;78.67;30.67;;;1.60;99.90;;;;;;5010786;28;20206;-83
2021/03/03 07:59:53;;;;;;;83.13;30.73;;;1.50;99.90;;;;;;5003760;28;20222;-82
2021/03/03 08:02:20;;;;;;;72.90;29.57;;;1.50;99.90;;;;;;5009723;28;20187;-82
2021/03/03 08:04:48;;;;;;;63.03;27.83;;;1.60;99.90;;;;;;5004072;28;20206;-82
2021/03/03 08:07:22;;;;;;;70.47;28.40;;;1.60;99.90;;;;;;5006690;28;20203;-82
2021/03/03 08:10:31;;;;;;;69.50;29.13;;;1.50;99.90;;;;;;5012325;28;20247;-84
2021/03/03 08:13:03;;;;;;;71.23;29.00;;;1.50;99.90;;;;;;5014575;28;20195;-77
2021/03/03 08:15:38;;;;;;;68.03;28.73;;;1.60;99.90;;;;;;4997097;28;20563;-78
2021/03/03 08:18:27;;;;;;;58.73;25.17;;;1.60;99.90;;;;;;4999556;28;20493;-79
2021/03/03 08:20:57;;;;;;;60.03;25.50;;;1.60;99.90;;;;;;5006101;28;20215;-79
2021/03/03 08:23:42;;;;;;;53.73;25.70;;;1.70;99.90;;;;;;5006949;28;20512;-79
2021/03/03 08:26:36;;;;;;;60.43;25.97;;;1.70;99.90;;;;;;5021282;28;20195;-81
2021/03/03 08:29:26;;;;;;;57.30;25.57;;;1.80;99.90;;;;;;5014210;28;20207;-78
2021/03/03 08:32:22;;;;;;;62.57;26.90;;;1.80;99.90;;;;;;5004140;28;20620;-78
2021/03/03 08:34:51;;;;;;;60.63;27.73;;;1.80;99.90;;;;;;5003741;28;20209;-79
2021/03/03 08:37:33;;;;;;;70.40;29.27;;;2.10;99.90;;;;;;5010141;28;20200;-79
2021/03/03 08:40:04;;;;;;;61.43;27.70;;;2.20;99.20;;;;;;5008429;28;20233;-78
2021/03/03 08:42:36;;;;;;;62.17;29.03;;;2.20;98.70;;;;;;4998192;28;21182;-79
2021/03/03 08:45:15;;;;;;;66.13;28.00;;;2.20;98.20;;;;;;5001344;28;20619;-78
2021/03/03 08:47:59;;;;;;;68.63;29.90;;;2.30;97.70;;;;;;4997727;28;20239;-80
2021/03/03 08:50:29;;;;;;;61.90;27.87;;;2.40;98.10;;;;;;4975459;28;20243;-80
2021/03/03 08:53:30;;;;;;;61.10;27.43;;;2.40;97.20;;;;;;4993272;28;20816;-81
2021/03/03 08:55:59;;;;;;;56.40;26.40;;;2.40;96.80;;;;;;4995280;28;20190;-79
2021/03/03 08:59:01;;;;;;;61.00;25.43;;;2.40;97.10;;;;;;4995862;28;20203;-80
2021/03/03 09:02:01;;;;;;;59.73;27.40;;;2.50;97.30;;;;;;4999703;28;21511;-78
2021/03/03 09:04:31;;;;;;;63.47;28.03;;;2.60;97.20;;;;;;5005606;28;20406;-79
2021/03/03 09:07:00;;;;;;;61.37;28.13;;;2.80;96.20;;;;;;4993134;28;20201;-78
2021/03/03 09:09:29;;;;;;;61.70;27.87;;;2.80;95.50;;;;;;4993316;28;20637;-80
2021/03/03 09:12:01;;;;;;;59.37;27.63;;;2.80;95.30;;;;;;4997208;28;20206;-77
2021/03/03 09:14:29;;;;;;;58.83;27.63;;;2.80;95.40;;;;;;5000700;28;20214;-78
2021/03/03 09:16:59;;;;;;;54.90;27.07;;;2.90;95.20;;;;;;4994798;28;20209;-78
2021/03/03 09:19:29;;;;;;;58.97;27.47;;;2.90;95.00;;;;;;5002970;28;20518;-77
2021/03/03 09:21:57;;;;;;;62.00;28.07;;;2.90;95.00;;;;;;4997710;28;20236;-81
2021/03/03 09:24:26;;;;;;;61.77;28.53;;;2.80;94.70;;;;;;4987235;28;20655;-80
2021/03/03 09:27:07;;;;;;;62.73;28.63;;;2.70;94.60;;;;;;4991810;28;20205;-78
2021/03/03 09:29:36;;;;;;;58.43;27.93;;;2.70;95.60;;;;;;5002359;28;20217;-81
2021/03/03 09:32:09;;;;;;;63.53;29.07;;;2.80;95.90;;;;;;5000253;28;20197;-79
2021/03/03 09:34:44;;;;;;;65.17;28.70;;;2.70;95.80;;;;;;5016410;28;20296;-78
2021/03/03 09:37:12;;;;;;;68.43;29.10;;;2.80;96.20;;;;;;4996977;28;20202;-80
2021/03/03 09:39:40;;;;;;;61.90;29.13;;;3.00;96.60;;;;;;4986257;28;20229;-81
2021/03/03 09:42:09;;;;;;;62.73;29.13;;;3.00;96.00;;;;;;4997946;28;20203;-78
2021/03/03 09:44:51;;;;;;;57.27;28.93;;;3.10;95.90;;;;;;4999335;28;20726;-80
2021/03/03 09:47:24;;;;;;;56.57;27.43;;;3.10;95.80;;;;;;4994978;28;20288;-81
2021/03/03 09:49:58;;;;;;;60.63;29.63;;;3.10;95.40;;;;;;4996185;28;20207;-80
2021/03/03 09:52:32;;;;;;;54.93;27.67;;;3.30;95.90;;;;;;5013573;28;20207;-79
2021/03/03 09:55:00;;;;;;;56.77;27.07;;;3.40;94.40;;;;;;5001346;28;20199;-80
2021/03/03 09:57:29;;;;;;;64.97;29.23;;;3.40;94.20;;;;;;5002666;28;20203;-79
2021/03/03 09:59:57;;;;;;;66.07;29.73;;;3.40;94.00;;;;;;5004532;28;20223;-77
2021/03/03 10:02:29;;;;;;;65.67;29.77;;;3.50;93.70;;;;;;4994241;28;20390;-81
2021/03/03 10:04:59;;;;;;;63.83;29.73;;;3.50;93.80;;;;;;4992975;28;20223;-78
2021/03/03 10:07:28;;;;;;;66.23;29.77;;;3.50;94.20;;;;;;4990185;28;20203;-82
2021/03/03 10:09:57;;;;;;;65.83;30.40;;;3.60;93.60;;;;;;4992774;28;20213;-77
2021/03/03 10:12:28;;;;;;;60.87;30.27;;;3.70;93.60;;;;;;4999925;28;20257;-79
2021/03/03 10:15:04;;;;;;;60.07;30.03;;;3.60;93.20;;;;;;5006285;28;20196;-78
2021/03/03 10:17:38;;;;;;;67.03;31.43;;;3.70;93.50;;;;;;4992942;28;20203;-79
2021/03/03 10:20:11;;;;;;;62.63;30.60;;;3.90;93.90;;;;;;5001399;28;20254;-80
2021/03/03 10:22:43;;;;;;;60.77;29.47;;;4.10;93.30;;;;;;5013354;28;20468;-79
2021/03/03 10:25:13;;;;;;;56.10;27.40;;;4.10;92.60;;;;;;4997039;28;20634;-78
2021/03/03 10:27:42;;;;;;;53.53;26.80;;;4.20;92.30;;;;;;4981048;28;20481;-80
2021/03/03 10:30:20;;;;;;;55.30;26.67;;;4.20;92.20;;;;;;4984478;28;20499;-79
2021/03/03 10:32:48;;;;;;;51.57;26.67;;;4.30;92.20;;;;;;4996087;28;21192;-81
2021/03/03 10:35:17;;;;;;;56.07;26.10;;;4.20;91.80;;;;;;4996172;28;20191;-80
2021/03/03 10:37:44;;;;;;;53.53;27.07;;;4.10;92.20;;;;;;4987041;28;20624;-81
2021/03/03 10:40:14;;;;;;;52.37;27.37;;;4.30;92.70;;;;;;4993250;28;20261;-77
2021/03/03 10:42:42;;;;;;;53.60;25.90;;;4.40;92.00;;;;;;4991720;28;20389;-76
2021/03/03 10:45:21;;;;;;;51.77;27.43;;;4.60;92.10;;;;;;4992043;28;20261;-80
2021/03/03 10:47:51;;;;;;;51.63;26.47;;;4.70;91.60;;;;;;4988448;28;20206;-79
2021/03/03 10:50:33;;;;;;;59.77;28.70;;;4.60;91.50;;;;;;4985950;28;20483;-79
2021/03/03 10:53:02;;;;;;;54.60;28.07;;;4.70;91.50;;;;;;4993219;28;20212;-81
2021/03/03 10:55:37;;;;;;;46.70;25.23;;;4.70;91.60;;;;;;4992904;28;20195;-81
2021/03/03 10:58:07;;;;;;;51.93;27.10;;;4.70;91.60;;;;;;4987916;28;20204;-80
2021/03/03 11:00:55;;;;;;;51.53;28.33;;;4.80;91.70;;;;;;4999287;28;20211;-80
2021/03/03 11:03:24;;;;;;;54.83;28.27;;;4.90;91.70;;;;;;4999050;28;20508;-80
2021/03/03 11:05:53;;;;;;;56.73;28.03;;;5.00;91.20;;;;;;5012018;28;20203;-78
2021/03/03 11:08:22;;;;;;;56.83;29.40;;;5.00;91.20;;;;;;4990767;28;20205;-77
2021/03/03 11:10:50;;;;;;;60.40;28.53;;;5.00;91.00;;;;;;4982989;28;20201;-80
2021/03/03 11:13:18;;;;;;;54.67;28.43;;;5.10;91.60;;;;;;4995778;28;20323;-82
2021/03/03 11:15:45;;;;;;;48.03;26.37;;;5.60;91.30;;;;;;4989820;28;20326;-83
2021/03/03 11:18:19;;;;;;;52.43;27.07;;;5.50;90.40;;;;;;4990079;28;20280;-78
2021/03/03 11:20:48;;;;;;;57.63;29.70;;;5.60;90.30;;;;;;4991248;28;20240;-80
2021/03/03 11:23:16;;;;;;;53.93;29.70;;;5.50;90.00;;;;;;4998305;28;20209;-80
2021/03/03 11:25:43;;;;;;;56.53;29.50;;;5.60;90.10;;;;;;4993622;28;20419;-76
2021/03/03 11:28:11;;;;;;;59.90;29.40;;;5.50;90.20;;;;;;4976437;28;20319;-71
2021/03/03 11:30:38;;;;;;;52.43;28.47;;;5.50;90.50;;;;;;4970686;28;20522;-72
2021/03/03 11:33:06;;;;;;;54.23;28.37;;;5.60;90.50;;;;;;4980111;28;20458;-75
2021/03/03 11:35:34;;;;;;;55.10;28.63;;;5.60;90.70;;;;;;4978493;28;20620;-71
2021/03/03 11:38:03;;;;;;;51.03;27.27;;;5.70;90.30;;;;;;4975896;28;20589;-74
2021/03/03 11:40:30;;;;;;;55.27;29.33;;;5.70;90.10;;;;;;4975178;28;20315;-71
2021/03/03 11:42:58;;;;;;;55.20;29.80;;;5.70;90.00;;;;;;4974322;28;20737;-70
2021/03/03 11:45:25;;;;;;;55.87;29.10;;;5.60;90.10;;;;;;4980563;28;20646;-74
2021/03/03 11:47:52;;;;;;;51.17;28.83;;;5.60;90.20;;;;;;4983878;28;20497;-70
2021/03/03 11:50:20;;;;;;;59.00;30.40;;;5.60;90.60;;;;;;4976508;28;20217;-73
2021/03/03 11:52:47;;;;;;;57.07;29.63;;;5.70;90.50;;;;;;4978835;28;21540;-74
2021/03/03 11:55:16;;;;;;;54.23;30.27;;;5.80;90.50;;;;;;4984413;28;20232;-80
2021/03/03 11:57:44;;;;;;;56.67;28.77;;;6.00;90.20;;;;;;4994888;28;20765;-79
2021/03/03 12:00:13;;;;;;;54.30;29.03;;;6.10;90.40;;;;;;4986425;28;20511;-79
2021/03/03 12:02:41;;;;;;;57.03;29.90;;;6.30;90.10;;;;;;4993224;28;20658;-78
2021/03/03 12:05:10;;;;;;;57.97;30.70;;;6.50;89.00;;;;;;4988505;28;20218;-78
2021/03/03 12:07:38;;;;;;;53.97;30.17;;;6.60;89.00;;;;;;4997477;28;20306;-81
2021/03/03 12:10:07;;;;;;;54.77;30.63;;;6.60;88.40;;;;;;5006733;28;20195;-81
2021/03/03 12:12:35;;;;;;;53.27;30.00;;;6.70;88.70;;;;;;4993505;28;20200;-79
2021/03/03 12:15:04;;;;;;;59.30;32.17;;;6.60;88.30;;;;;;5002346;28;20201;-78
2021/03/03 12:17:32;;;;;;;55.40;29.07;;;6.50;89.10;;;;;;5002429;28;20329;-81
2021/03/03 12:20:01;;;;;;;59.70;31.60;;;6.60;89.30;;;;;;4999867;28;20231;-81
2021/03/03 12:22:29;;;;;;;57.57;31.53;;;6.50;89.20;;;;;;5002301;28;20630;-80
2021/03/03 12:24:57;;;;;;;58.57;32.37;;;6.50;88.80;;;;;;5006595;28;20206;-80
2021/03/03 12:27:26;;;;;;;55.10;30.60;;;6.40;89.30;;;;;;5014929;28;20596;-83
2021/03/03 12:29:55;;;;;;;62.87;33.97;;;6.30;89.60;;;;;;5024579;28;20204;-83
2021/03/03 12:32:23;;;;;;;64.23;32.53;;;6.30;90.40;;;;;;5016100;28;20262;-83
2021/03/03 12:34:51;;;;;;;60.53;32.63;;;6.10;89.90;;;;;;5015298;28;20198;-81
2021/03/03 12:37:21;;;;;;;56.70;32.70;;;6.00;90.20;;;;;;5013417;28;20204;-83
2021/03/03 12:39:49;;;;;;;58.07;33.87;;;5.80;90.30;;;;;;5004605;28;20283;-80
2021/03/03 12:42:16;;;;;;;61.03;32.47;;;5.80;90.80;;;;;;4998869;28;20527;-78
2021/03/03 12:44:44;;;;;;;64.63;33.93;;;5.80;91.10;;;;;;4996218;28;20203;-78
2021/03/03 12:47:13;;;;;;;64.33;33.50;;;5.90;91.00;;;;;;5001207;28;20209;-83
2021/03/03 12:49:41;;;;;;;65.77;33.70;;;5.90;90.90;;;;;;5011356;28;20203;-81
2021/03/03 12:52:08;;;;;;;68.03;35.03;;;5.80;90.90;;;;;;4999523;28;619847;-81